createdAt,value
2018-03-17T00:02:31.166Z,17.85
2018-03-17T00:04:58.656Z,18.93
2018-03-17T00:07:26.773Z,18.93
2018-03-17T00:09:54.249Z,19.50
2018-03-17T00:12:29.249Z,18.98
2018-03-17T00:14:56.748Z,17.87
2018-03-17T00:17:24.213Z,18.42
2018-03-17T00:19:51.822Z,17.92
2018-03-17T00:22:20.149Z,17.75
2018-03-17T00:24:47.835Z,16.37
2018-03-17T00:27:16.045Z,17.48
2018-03-17T00:29:43.560Z,17.58
2018-03-17T00:32:11.189Z,17.95
2018-03-17T00:34:38.695Z,18.35
2018-03-17T00:37:06.197Z,18.33
2018-03-17T00:39:33.665Z,17.23
2018-03-17T00:42:02.097Z,16.23
2018-03-17T00:44:29.564Z,17.30
2018-03-17T00:46:57.123Z,17.17
2018-03-17T00:49:24.601Z,16.73
2018-03-17T00:51:52.156Z,16.90
2018-03-17T00:54:19.748Z,16.37
2018-03-17T00:56:47.230Z,15.83
2018-03-17T00:59:14.718Z,17.05
2018-03-17T01:01:42.973Z,18.17
2018-03-17T01:04:10.454Z,17.08
2018-03-17T01:06:39.360Z,17.40
2018-03-17T01:09:07.738Z,16.43
2018-03-17T01:11:35.233Z,15.93
2018-03-17T01:14:03.487Z,16.40
2018-03-17T01:16:30.978Z,17.48
2018-03-17T01:19:21.513Z,16.73
2018-03-17T01:21:49.093Z,16.23
2018-03-17T01:24:16.586Z,16.77
2018-03-17T01:26:44.065Z,17.08
2018-03-17T01:29:11.596Z,15.75
2018-03-17T01:31:39.124Z,16.33
2018-03-17T01:34:06.603Z,16.95
2018-03-17T01:36:34.292Z,15.43
2018-03-17T01:39:02.564Z,16.33
2018-03-17T01:41:30.066Z,15.35
2018-03-17T01:43:57.595Z,15.45
2018-03-17T01:46:25.083Z,15.68
2018-03-17T01:48:53.709Z,14.32
2018-03-17T01:51:33.404Z,15.77
2018-03-17T01:54:12.710Z,15.23
2018-03-17T01:56:40.234Z,15.27
2018-03-17T01:59:07.708Z,14.77
2018-03-17T02:01:35.200Z,14.15
2018-03-17T02:04:03.458Z,15.25
2018-03-17T02:06:30.977Z,14.30
2018-03-17T02:08:58.818Z,14.10
2018-03-17T02:11:29.626Z,13.55
2018-03-17T02:13:57.096Z,15.15
2018-03-17T02:16:24.630Z,13.23
2018-03-17T02:18:53.780Z,13.77
2018-03-17T02:21:21.324Z,13.90
2018-03-17T02:23:48.887Z,13.20
2018-03-17T02:26:16.396Z,12.65
2018-03-17T02:28:56.558Z,13.30
2018-03-17T02:31:24.046Z,13.97
2018-03-17T02:33:51.542Z,14.77
2018-03-17T02:36:19.814Z,15.00
2018-03-17T02:38:47.388Z,14.73
2018-03-17T02:41:14.881Z,14.82
2018-03-17T02:43:54.782Z,16.15
2018-03-17T02:46:22.279Z,15.05
2018-03-17T02:48:50.092Z,15.25
2018-03-17T02:51:17.599Z,16.27
2018-03-17T02:53:45.160Z,14.60
2018-03-17T02:56:12.650Z,14.70
2018-03-17T02:58:47.236Z,15.35
2018-03-17T03:01:14.792Z,14.80
2018-03-17T03:03:43.033Z,14.85
2018-03-17T03:06:10.546Z,14.70
2018-03-17T03:08:38.046Z,14.55
2018-03-17T03:11:05.541Z,14.68
2018-03-17T03:13:33.120Z,14.48
2018-03-17T03:16:04.583Z,15.30
2018-03-17T03:18:32.262Z,14.98
2018-03-17T03:20:59.773Z,15.65
2018-03-17T03:23:28.167Z,15.93
2018-03-17T03:25:56.445Z,15.95
2018-03-17T03:28:36.558Z,17.25
2018-03-17T03:31:04.097Z,15.63
2018-03-17T03:33:32.445Z,15.32
2018-03-17T03:36:00.030Z,14.53
2018-03-17T03:38:27.534Z,16.30
2018-03-17T03:40:55.049Z,15.27
2018-03-17T03:43:22.545Z,15.80
2018-03-17T03:45:50.054Z,15.55
2018-03-17T03:48:17.527Z,16.60
2018-03-17T03:50:45.922Z,16.70
2018-03-17T03:53:13.444Z,17.10
2018-03-17T03:55:40.932Z,18.20
2018-03-17T03:58:09.237Z,17.98
2018-03-17T04:00:36.727Z,16.80
2018-03-17T04:03:04.345Z,15.87
2018-03-17T04:05:31.843Z,15.48
2018-03-17T04:07:59.689Z,15.93
2018-03-17T04:10:27.192Z,16.60
2018-03-17T04:12:54.676Z,15.10
2018-03-17T04:15:22.163Z,15.52
2018-03-17T04:17:49.636Z,15.23
2018-03-17T04:20:17.183Z,15.40
2018-03-17T04:22:44.633Z,14.57
2018-03-17T04:25:12.762Z,14.55
2018-03-17T04:27:40.274Z,14.68
2018-03-17T04:30:08.719Z,14.90
2018-03-17T04:32:36.413Z,14.05
2018-03-17T04:35:04.765Z,14.90
2018-03-17T04:37:32.294Z,14.73
2018-03-17T04:39:59.890Z,14.50
2018-03-17T04:42:27.480Z,14.65
2018-03-17T04:44:55.013Z,14.63
2018-03-17T04:47:22.769Z,13.52
2018-03-17T04:49:50.298Z,14.45
2018-03-17T04:52:17.812Z,15.27
2018-03-17T04:54:45.300Z,14.05
2018-03-17T04:57:13.608Z,14.75
2018-03-17T04:59:41.204Z,14.77
2018-03-17T05:02:08.790Z,14.23
2018-03-17T05:04:36.275Z,14.07
2018-03-17T05:07:03.782Z,17.80
2018-03-17T05:09:32.035Z,14.55
2018-03-17T05:11:59.508Z,14.55
2018-03-17T05:14:26.990Z,14.73
2018-03-17T05:16:55.614Z,13.98
2018-03-17T05:19:23.131Z,14.18
2018-03-17T05:21:50.673Z,15.93
2018-03-17T05:24:18.216Z,14.90
2018-03-17T05:26:45.768Z,14.48
2018-03-17T05:29:13.259Z,14.13
2018-03-17T05:31:42.714Z,13.77
2018-03-17T05:34:11.288Z,15.20
2018-03-17T05:36:38.909Z,14.35
2018-03-17T05:39:07.482Z,14.68
2018-03-17T05:41:35.090Z,14.48
2018-03-17T05:44:03.735Z,15.00
2018-03-17T05:46:31.463Z,15.30
2018-03-17T05:48:59.932Z,14.63
2018-03-17T05:51:28.292Z,14.40
2018-03-17T05:53:55.882Z,14.10
2018-03-17T05:56:23.671Z,13.60
2018-03-17T05:58:53.324Z,13.47
2018-03-17T06:01:21.046Z,13.98
2018-03-17T06:03:48.574Z,13.75
2018-03-17T06:06:16.884Z,13.65
2018-03-17T06:08:44.435Z,14.63
2018-03-17T06:11:11.999Z,14.35
2018-03-17T06:13:40.168Z,13.82
2018-03-17T06:16:07.976Z,13.60
2018-03-17T06:18:36.224Z,13.27
2018-03-17T06:21:03.803Z,13.48
2018-03-17T06:23:31.390Z,13.48
2018-03-17T06:25:59.656Z,12.98
2018-03-17T06:28:29.479Z,13.13
2018-03-17T06:30:57.051Z,12.52
2018-03-17T06:33:24.619Z,12.68
2018-03-17T06:35:52.936Z,12.37
2018-03-17T06:38:20.481Z,12.60
2018-03-17T06:41:03.898Z,13.45
2018-03-17T06:43:31.418Z,12.25
2018-03-17T06:45:59.681Z,12.45
2018-03-17T06:48:27.185Z,13.43
2018-03-17T06:50:55.443Z,12.35
2018-03-17T06:53:26.684Z,11.30
2018-03-17T06:55:54.209Z,12.65
2018-03-17T06:58:21.714Z,12.98
2018-03-17T07:00:49.202Z,11.23
2018-03-17T07:03:16.762Z,11.98
2018-03-17T07:05:45.077Z,11.63
2018-03-17T07:08:12.607Z,11.52
2018-03-17T07:10:40.161Z,11.00
2018-03-17T07:13:07.643Z,11.07
2018-03-17T07:15:35.178Z,10.30
2018-03-17T07:18:03.519Z,10.60
2018-03-17T07:20:31.041Z,11.12
2018-03-17T07:22:59.372Z,11.27
2018-03-17T07:25:26.941Z,11.23
2018-03-17T07:27:54.662Z,11.75
2018-03-17T07:30:22.962Z,10.48
2018-03-17T07:32:51.945Z,10.75
2018-03-17T07:35:19.489Z,10.38
2018-03-17T07:37:47.000Z,10.10
2018-03-17T07:40:16.136Z,11.85
2018-03-17T07:42:44.152Z,9.45
2018-03-17T07:45:11.657Z,12.25
2018-03-17T07:47:39.171Z,10.05
2018-03-17T07:50:26.580Z,10.68
2018-03-17T07:56:03.959Z,11.88
2018-03-17T10:11:56.360Z,11.02
2018-03-17T10:14:25.973Z,10.55
2018-03-17T10:19:56.937Z,13.02
2018-03-17T10:22:26.590Z,14.90
2018-03-17T10:28:55.250Z,10.65
2018-03-17T10:34:45.700Z,9.93
2018-03-17T10:48:57.549Z,9.07
2018-03-17T10:56:59.612Z,9.57
2018-03-17T10:59:27.926Z,9.13
2018-03-17T11:04:55.039Z,10.02
2018-03-17T11:07:45.966Z,9.82
2018-03-17T11:10:29.016Z,9.32
2018-03-17T11:15:57.575Z,9.32
2018-03-17T11:18:27.684Z,11.35
2018-03-17T11:20:58.178Z,9.57
2018-03-17T11:23:27.921Z,11.35
2018-03-17T11:26:00.942Z,9.52
2018-03-17T11:28:29.188Z,9.57
2018-03-17T11:30:57.462Z,9.02
2018-03-17T12:55:55.579Z,9.98
2018-03-17T13:01:46.352Z,10.37
2018-03-17T13:04:15.871Z,10.23
2018-03-17T13:11:13.893Z,9.30
2018-03-17T13:14:15.468Z,9.45
2018-03-17T13:16:47.133Z,11.35
2018-03-17T13:45:17.248Z,9.15
2018-03-17T13:47:46.103Z,9.05
2018-03-17T14:02:16.328Z,10.57
2018-03-17T14:04:48.155Z,9.70
2018-03-17T14:07:19.042Z,11.63
2018-03-17T14:36:18.392Z,9.20
2018-03-17T16:43:54.362Z,10.75
2018-03-17T16:49:15.894Z,11.48
2018-03-17T16:51:46.466Z,9.37
2018-03-17T17:34:16.338Z,10.07
2018-03-17T18:01:20.966Z,12.82
2018-03-17T18:21:46.081Z,12.20
2018-03-17T18:24:17.615Z,12.18
2018-03-17T18:37:16.577Z,13.35
2018-03-17T18:54:46.896Z,14.07
2018-03-17T18:57:16.550Z,12.83
2018-03-17T19:05:47.914Z,11.43
2018-03-17T19:08:15.750Z,13.52
2018-03-17T19:31:49.916Z,14.38
2018-03-17T19:40:18.195Z,14.15
2018-03-17T19:42:49.152Z,15.15
2018-03-17T19:48:15.217Z,16.00
2018-03-17T19:56:45.743Z,13.18
2018-03-17T20:23:15.630Z,16.58
2018-03-17T21:41:38.353Z,13.97
2018-03-17T21:44:38.157Z,14.30
2018-03-17T22:24:19.193Z,15.05
2018-03-17T22:35:15.985Z,13.68
2018-03-17T22:37:45.267Z,14.80
2018-03-17T23:16:16.701Z,14.87
